• Join FlightAware (Why Join?)
  • Login
  • US Flag 
01:49AM EDT


 

Airport Tracker/Info


-or-


 

Live Flight TrackerFlight Track Log ✈ N400PU ✈ 08-Oct-2013 ✈ KORD - KLAF

Flight Track Log - Related Links

Times and Time Zones

All times are in EDT time to prevent confusion due to time zone crossing. See the N400PU flight status page for this flight to view local times or setup timezone preferences in your user account.

Time Position Orientation Groundspeed Altitude Reporting Facility
EDT Latitude Longitude Course Direction KTS MPH feet Rate Location/Type
01:31PM 41.9333 -87.9167 160° South 175 201 1,800  Level Chicago TRACON
01:32PM 41.8667 -87.8833 160° South 249 287 4,600 2,700 Climbing Chicago TRACON
01:33PM 41.8000 -87.8333 151° Southeast 272 313 7,500 2,520 Climbing Chicago TRACON
01:34PM 41.7458 -87.7956 153° Southeast 277 319 9,800 1,680 Climbing Chicago Center
01:35PM 41.6761 -87.7469 152° Southeast 282 325 11,000 540 Climbing Chicago Center
01:36PM 41.6017 -87.6961 153° Southeast 295 339 11,000  Level Chicago Center
01:37PM 41.4992 -87.6228 152° Southeast 344 396 11,000  Level Chicago Center
01:38PM 41.4086 -87.5686 156° South 354 407 11,000 -60 Level Chicago Center
01:39PM 41.3094 -87.5536 174° South 357 411 10,900  Descending Chicago Center
01:40PM 41.2122 -87.5358 172° South 352 405 11,000  Climbing Chicago Center
01:41PM 41.1192 -87.4986 163° South 350 403 11,000  Level Chicago Center
01:42PM 41.0158 -87.4564 163° South 348 400 11,000 -120 Level Chicago Center
01:42PM 41.0253 -87.4597 345° North 354 407 10,900  Descending Chicago Center
01:43PM 40.9461 -87.4289 164° South 354 407 11,000 60 Climbing Chicago Center
01:43PM 40.9122 -87.4153 163° South 354 407 11,000 -300 Level Chicago Center
01:44PM 40.8642 -87.3872 156° South 336 387 10,700 -900 Descending Chicago Center
01:44PM 40.8394 -87.3592 139° Southeast 299 344 10,100 -1,740 Descending Chicago Center
01:45PM 40.7981 -87.3219 146° Southeast 270 311 9,000 -1,800 Descending Chicago Center
01:45PM 40.7772 -87.2992 140° Southeast 280 322 8,300 -1,980 Descending Chicago Center
01:46PM 40.7339 -87.2594 145° Southeast 272 313 7,000 -1,800 Descending Chicago Center
01:46PM 40.7172 -87.2400 139° Southeast 271 312 6,500 -1,620 Descending Chicago Center
01:47PM 40.6778 -87.2006 143° Southeast 269 310 5,400 -1,500 Descending Chicago Center
01:47PM 40.6583 -87.1792 140° Southeast 270 311 5,000 -1,200 Descending Chicago Center
01:48PM 40.6158 -87.1389 144° Southeast 266 306 4,200 -1,020 Descending Chicago Center
01:48PM 40.6006 -87.1206 138° Southeast 265 305 4,000 -840 Descending Chicago Center
01:49PM 40.5614 -87.0858 146° Southeast 257 296 3,400 -900 Descending Chicago Center
01:49PM 40.5461 -87.0661 136° Southeast 256 295 3,100 -900 Descending Chicago Center
01:50PM 40.5053 -87.0300 146° Southeast 246 283 2,500 -660 Descending Chicago Center
01:51PM 40.4633 -86.9833 140° Southeast 196 226 2,100 -240 Descending Chicago Center
01:52PM 40.4575 -86.9172 97° East 164 189 2,100 -300 Level Chicago Center
01:53PM 40.4342 -86.8747 126° Southeast 153 176 1,600 -420 Descending Chicago Center
01:54PM 40.4019 -86.8972 208° Southwest 145 167 1,300 -300 Descending Chicago Center
01:56PM 40.4000 -86.9333 270° West  Level FlightAware Approximate
02:03PM 40.4123 -86.9369 270° West  Level Estimated